Terminal Aerodrome Forecast
Issued by NWS Bismarck, ND

Home | Current Version | Previous Version | Graphics & Text | Print | Product List | Glossary On
Versions: 1 2 3 4 5 6 7 8 9 10 11 12 13 14 15
000
FTUS43 KBIS 252330
TAFBIS
TAF
KBIS 252330Z 2600/2624 25009KT P6SM VCSH SCT100
     FM260200 25007KT P6SM SCT100
     FM261200 30007KT P6SM SCT100=

USA.gov is the U.S. government's official web portal to all federal, state and local government web resources and services.